Time;durP1;ratioP1;P1;durP2;ratioP2;P2;SDS_P1;SDS_P2;PMS_P1;PMS_P2;Temp;Humidity;BMP_temperature;BMP_pressure;BME280_temperature;BME280_humidity;BME280_pressure;Samples;Min_cycle;Max_cycle;Signal;HPM_P1;HPM_P2
2021/09/07 19:06:36;;;;;;;;;;;;;;;23.54;69.83;97476.41;225866;255;70304;-70
2021/09/07 19:07:37;;;;;;;;;;;;;;;23.33;69.09;97474.19;219380;260;190239;-59
2021/09/07 19:09:48;;;;;;;1982.27;736.43;;;;;;;22.91;68.79;97478.20;225639;255;74771;-61
2021/09/07 19:10:49;;;;;;;1985.92;733.83;;;;;;;22.90;68.87;97475.20;223698;257;98005;-60
2021/09/07 19:11:51;;;;;;;1885.70;722.42;;;;;;;23.08;69.55;97478.14;222897;258;98002;-63
2021/09/07 19:14:34;;;;;;;;;;;;;;;26.66;61.45;97475.34;226756;255;65656;-58
2021/09/07 19:15:35;;;;;;;;;;;;;;;27.49;59.42;97472.10;221916;260;99085;-40
2021/09/07 19:16:37;;;;;;;;;;;;;;;27.63;58.85;97481.58;222386;260;99235;-41
2021/09/07 19:17:38;;;;;;;;;;;;;;;27.76;58.36;97478.73;222128;255;97865;-40
2021/09/07 19:18:40;;;;;;;;;;;;;;;27.83;57.89;97469.13;219614;252;98010;-40
2021/09/07 19:19:41;;;;;;;;;;;;;;;27.93;58.00;97481.09;219789;251;100657;-40
2021/09/07 19:20:42;;;;;;;;;;;;;;;27.93;57.60;97472.73;219694;252;100236;-41
2021/09/07 19:22:54;;;;;;;1334.97;548.43;;;;;;;28.46;57.39;97464.09;221752;255;65563;-39
2021/09/07 19:23:55;;;;;;;1004.78;378.80;;;;;;;28.71;56.45;97464.59;224247;256;98921;-36
2021/09/07 19:24:57;;;;;;;1169.38;500.18;;;;;;;28.68;56.43;97461.72;223869;256;98954;-40
2021/09/07 19:25:58;;;;;;;1214.35;482.73;;;;;;;29.12;55.37;97468.30;223753;258;98878;-37
2021/09/07 19:27:01;;;;;;;1337.88;540.45;;;;;;;28.85;55.47;97466.02;223563;257;98942;-45
2021/09/07 19:28:02;;;;;;;1354.48;560.65;;;;;;;28.30;56.65;97464.79;223748;257;191210;-51
2021/09/07 19:29:04;;;;;;;1249.50;496.45;;;;;;;27.99;57.29;97469.89;223208;257;190114;-48
2021/09/07 19:30:05;;;;;;;1198.88;480.27;;;;;;;27.87;57.34;97473.62;223899;257;189538;-45
2021/09/07 19:31:07;;;;;;;1149.05;447.33;;;;;;;27.67;57.72;97470.58;223454;257;190127;-45
2021/09/07 19:32:09;;;;;;;1159.08;432.27;;;;;;;27.42;58.21;97468.55;222979;257;190305;-45
2021/09/07 19:33:10;;;;;;;1082.65;401.90;;;;;;;27.57;58.15;97469.71;222949;258;190237;-46
2021/09/07 19:34:12;;;;;;;1130.33;430.18;;;;;;;27.32;58.48;97469.10;223003;258;190285;-45
2021/09/07 19:34:52;;;;;;;;;;;;;;;27.29;59.13;97469.25;75152;255;73747;-45
2021/09/07 19:35:14;;;;;;;1999.90;978.63;;;;;;;27.26;58.98;97467.20;73849;257;194237;-44
2021/09/07 19:35:35;;;;;;;1999.90;999.90;;;;;;;27.19;60.05;97464.23;73304;259;205336;-49
2021/09/07 19:35:57;;;;;;;1999.90;999.90;;;;;;;27.17;61.88;97465.18;73644;258;98942;-46
2021/09/07 19:36:19;;;;;;;1999.90;999.90;;;;;;;27.19;65.06;97466.20;73611;258;100396;-47
2021/09/07 19:36:40;;;;;;;1999.90;999.90;;;;;;;27.11;63.15;97468.00;73872;258;97731;-44
2021/09/07 19:37:02;;;;;;;1999.90;999.90;;;;;;;27.06;61.01;97461.33;73754;257;190075;-45
2021/09/07 19:37:23;;;;;;;1999.90;939.32;;;;;;;27.04;59.99;97474.21;72965;259;277630;-47
2021/09/07 19:37:45;;;;;;;1675.78;748.75;;;;;;;26.95;59.65;97467.98;73376;259;189850;-45
2021/09/07 19:38:06;;;;;;;1479.70;658.92;;;;;;;26.88;59.65;97471.96;73139;259;189845;-45
2021/09/07 19:38:28;;;;;;;1398.80;629.10;;;;;;;26.83;59.69;97464.48;72879;259;277907;-50
2021/09/07 19:38:50;;;;;;;1396.47;614.65;;;;;;;26.82;59.67;97469.23;73072;259;190614;-44
2021/09/07 19:39:12;;;;;;;1527.05;685.20;;;;;;;26.89;59.59;97471.37;72824;259;190416;-45
2021/09/07 19:39:33;;;;;;;1499.38;679.42;;;;;;;26.88;59.59;97464.20;72772;260;276184;-45
2021/09/07 19:39:55;;;;;;;1559.45;718.75;;;;;;;26.81;59.63;97470.41;73288;259;190057;-46
2021/09/07 19:40:16;;;;;;;;;;;;;;;26.80;59.63;97467.41;72633;248;190145;-46
2021/09/07 19:40:38;;;;;;;1999.90;906.70;;;;;;;26.74;59.78;97475.77;72379;265;277435;-46
2021/09/07 19:40:59;;;;;;;;;;;;;;;26.69;59.84;97469.06;71939;265;190692;-45
2021/09/07 19:41:21;;;;;;;1999.90;924.80;;;;;;;26.65;59.99;97470.37;71201;267;185300;-45
2021/09/07 19:41:43;;;;;;;1863.53;814.57;;;;;;;26.59;60.08;97466.83;71273;266;276730;-47
2021/09/07 19:42:04;;;;;;;;;;;;;;;26.59;60.11;97472.39;71608;266;197082;-46
2021/09/07 19:42:26;;;;;;;1999.90;947.30;;;;;;;26.52;60.21;97472.42;71287;264;184854;-48
2021/09/07 19:42:47;;;;;;;;;;;;;;;26.49;60.26;97471.74;71215;265;275550;-48
2021/09/07 19:43:10;;;;;;;;;;;;;;;26.47;60.40;97478.22;71401;265;191100;-49
2021/09/07 19:43:31;;;;;;;;;;;;;;;26.43;60.40;97475.94;70764;266;183447;-45
2021/09/07 19:43:52;;;;;;;;;;;;;;;26.39;60.57;97471.45;71070;266;278713;-45
2021/09/07 19:44:14;;;;;;;;;;;;;;;26.32;60.63;97469.82;71391;264;199713;-46
2021/09/07 19:44:35;;;;;;;;;;;;;;;26.22;60.83;97476.11;71792;264;183115;-46
2021/09/07 19:44:56;;;;;;;;;;;;;;;26.21;60.82;97476.47;71535;265;277090;-45
2021/09/07 19:45:20;;;;;;;;;;;;;;;26.17;60.96;97478.34;72253;263;190711;-46
2021/09/07 19:45:41;;;;;;;;;;;;;;;26.16;61.01;97473.95;71895;263;184373;-45
2021/09/07 19:46:02;;;;;;;1999.90;926.60;;;;;;;26.15;60.99;97475.09;71455;264;277416;-45
2021/09/07 19:46:24;;;;;;;;;;;;;;;26.14;61.00;97475.67;71906;264;190395;-45
2021/09/07 19:46:45;;;;;;;1999.90;947.83;;;;;;;26.11;61.04;97470.02;72098;263;184604;-44
2021/09/07 19:47:07;;;;;;;1999.90;949.98;;;;;;;26.11;61.76;97476.38;71923;263;268329;-47
2021/09/07 19:47:28;;;;;;;1999.90;965.60;;;;;;;26.18;61.49;97471.05;72188;263;192065;-44
2021/09/07 19:47:50;;;;;;;1999.90;960.25;;;;;;;26.25;61.21;97471.22;72015;263;189962;-44
2021/09/07 19:48:11;;;;;;;1999.90;955.85;;;;;;;26.24;60.99;97472.97;71970;263;276533;-45
2021/09/07 19:48:33;;;;;;;1999.90;953.20;;;;;;;26.26;61.72;97472.03;72211;263;190950;-48
2021/09/07 19:48:55;;;;;;;1999.90;949.20;;;;;;;26.11;61.26;97470.02;71696;263;198792;-43
2021/09/07 19:49:16;;;;;;;1999.90;999.90;;;;;;;25.93;61.85;97468.91;71868;263;278252;-44
2021/09/07 19:50:18;;;;;;;1790.50;774.10;;;;;;;25.22;64.00;97468.08;74437;255;76111;-45
2021/09/07 19:50:40;;;;;;;1561.67;631.53;;;;;;;24.87;64.28;97468.23;73486;258;204115;-40
2021/09/07 19:51:02;;;;;;;1842.45;799.48;;;;;;;24.53;64.60;97473.83;73183;258;194324;-39
2021/09/07 19:51:23;;;;;;;1884.55;828.65;;;;;;;24.20;65.43;97471.61;73353;258;96683;-40
2021/09/07 19:51:45;;;;;;;1799.68;812.97;;;;;;;24.23;65.40;97473.11;73789;258;98003;-39
2021/09/07 19:52:06;;;;;;;1819.60;818.75;;;;;;;24.20;65.31;97471.03;73808;258;98946;-40
2021/09/07 19:52:28;;;;;;;1843.75;826.48;;;;;;;24.14;65.28;97472.41;73368;258;191175;-38
2021/09/07 19:52:49;;;;;;;1858.72;829.12;;;;;;;24.10;65.43;97471.45;73172;258;276529;-39
2021/09/07 19:53:11;;;;;;;1851.22;824.68;;;;;;;24.05;65.52;97473.05;73569;258;190969;-40
2021/09/07 19:53:32;;;;;;;1774.15;796.63;;;;;;;24.05;65.57;97472.25;73362;258;190319;-41
2021/09/07 19:53:54;;;;;;;1792.90;797.52;;;;;;;23.99;65.67;97467.47;73208;258;277080;-39
2021/09/07 19:54:15;;;;;;;1990.25;865.85;;;;;;;23.95;65.74;97475.66;73393;258;190780;-40
2021/09/07 19:54:42;;;;;;;1999.90;907.55;;;;;;;23.94;65.81;97476.00;73295;258;191303;-38
2021/09/07 19:55:00;;;;;;;1999.90;929.18;;;;;;;23.94;65.86;97475.42;73200;258;245308;-39
2021/09/07 19:55:22;;;;;;;1999.90;911.28;;;;;;;23.87;66.00;97468.80;73321;258;190178;-39
2021/09/07 19:55:46;;;;;;;1999.90;903.85;;;;;;;23.85;66.07;97471.91;73265;258;189786;-39
2021/09/07 19:56:08;;;;;;;1999.90;958.87;;;;;;;23.79;66.13;97471.86;73118;258;249681;-39
2021/09/07 19:56:32;;;;;;;1999.90;963.92;;;;;;;23.75;66.25;97468.73;73099;258;190899;-38
2021/09/07 19:56:55;;;;;;;1999.90;964.98;;;;;;;23.72;66.32;97470.80;72847;260;191480;-39
2021/09/07 19:57:16;;;;;;;1999.90;935.30;;;;;;;23.69;66.37;97468.69;73178;258;274911;-40
2021/09/07 19:57:38;;;;;;;1999.90;921.50;;;;;;;23.70;66.42;97471.69;73505;258;190781;-40
2021/09/07 19:57:59;;;;;;;1999.90;897.02;;;;;;;23.69;66.49;97468.11;73245;258;192008;-39
2021/09/07 19:58:22;;;;;;;1999.90;871.78;;;;;;;23.72;66.55;97470.80;73093;258;275388;-39
2021/09/07 19:58:43;;;;;;;1976.30;849.27;;;;;;;23.68;66.59;97469.84;73377;258;189360;-39
2021/09/07 19:59:06;;;;;;;1969.70;843.52;;;;;;;23.63;66.57;97477.20;73340;258;190046;-40
2021/09/07 19:59:28;;;;;;;1965.90;845.08;;;;;;;23.61;66.66;97472.58;72848;258;274623;-39
2021/09/07 19:59:49;;;;;;;1981.38;848.85;;;;;;;23.58;66.74;97473.23;73244;260;191070;-40
2021/09/07 20:00:16;;;;;;;1998.10;850.98;;;;;;;23.60;66.77;97471.51;73234;258;191092;-41
2021/09/07 20:00:37;;;;;;;1965.55;842.10;;;;;;;23.61;66.69;97471.20;73480;258;246039;-40
2021/09/07 20:00:58;;;;;;;1937.33;834.02;;;;;;;23.59;66.67;97470.70;73727;258;190693;-40
2021/09/07 20:01:20;;;;;;;1942.68;833.98;;;;;;;23.62;66.69;97470.05;72895;258;189144;-39
2021/09/07 20:01:42;;;;;;;1941.30;831.15;;;;;;;23.58;66.71;97469.08;72889;260;277067;-38
2021/09/07 20:02:03;;;;;;;1941.33;832.83;;;;;;;23.55;66.70;97473.88;73224;260;190032;-38
2021/09/07 20:02:25;;;;;;;1999.90;857.58;;;;;;;23.54;66.78;97469.50;72205;262;191422;-40
2021/09/07 20:02:46;;;;;;;1986.70;847.08;;;;;;;23.55;66.78;97471.11;73374;258;285223;-39
2021/09/07 20:03:08;;;;;;;1962.65;831.25;;;;;;;23.57;66.80;97471.59;73680;258;189945;-39
2021/09/07 20:03:29;;;;;;;1994.37;840.50;;;;;;;23.57;66.77;97463.86;73296;258;199241;-39
2021/09/07 20:03:51;;;;;;;1999.90;854.42;;;;;;;23.53;66.91;97469.84;73314;258;277289;-42
2021/09/07 20:04:12;;;;;;;1999.90;849.50;;;;;;;23.52;66.97;97469.03;73614;258;189982;-42
2021/09/07 20:04:34;;;;;;;1999.90;857.32;;;;;;;23.54;66.98;97471.45;73350;258;190059;-39
2021/09/07 20:04:55;;;;;;;1999.90;851.50;;;;;;;23.53;67.01;97467.88;73323;258;277151;-39
2021/09/07 20:05:17;;;;;;;1999.90;852.55;;;;;;;23.53;66.96;97465.69;73509;258;189682;-40
2021/09/07 20:05:38;;;;;;;1999.90;852.73;;;;;;;23.52;67.03;97470.98;73249;259;191314;-39
2021/09/07 20:06:00;;;;;;;1999.90;854.18;;;;;;;23.52;67.08;97466.84;73196;258;276759;-38
2021/09/07 20:06:22;;;;;;;1999.90;850.33;;;;;;;23.46;67.08;97469.55;73519;258;188770;-40
2021/09/07 20:06:43;;;;;;;1999.90;848.78;;;;;;;23.43;67.13;97470.23;73410;258;192296;-39
2021/09/07 20:07:05;;;;;;;1999.90;849.60;;;;;;;23.43;67.15;97469.66;73204;258;278114;-41
2021/09/07 20:07:26;;;;;;;1999.90;844.08;;;;;;;23.40;67.24;97467.56;73448;258;192094;-40
2021/09/07 20:07:48;;;;;;;1999.90;846.15;;;;;;;23.41;67.29;97462.84;73350;258;190218;-39
2021/09/07 20:08:10;;;;;;;1999.90;840.10;;;;;;;23.41;67.22;97467.80;73222;258;275887;-38
2021/09/07 20:08:31;;;;;;;1977.92;824.35;;;;;;;23.40;67.21;97461.23;73451;258;190893;-39
2021/09/07 20:08:53;;;;;;;1995.45;823.25;;;;;;;23.40;67.26;97467.56;73412;258;190924;-39
2021/09/07 20:09:14;;;;;;;1999.90;827.75;;;;;;;23.40;67.32;97465.38;73286;258;276086;-39
2021/09/07 20:09:36;;;;;;;1990.93;821.42;;;;;;;23.39;67.35;97467.30;73701;258;191074;-38
2021/09/07 20:09:57;;;;;;;1971.25;812.55;;;;;;;23.36;67.35;97463.25;73505;258;191095;-39
2021/09/07 20:10:19;;;;;;;1934.60;805.70;;;;;;;23.38;67.32;97464.30;73170;258;274261;-41
2021/09/07 20:10:40;;;;;;;1942.00;807.98;;;;;;;23.36;67.37;97461.06;73394;257;190765;-38
2021/09/07 20:11:02;;;;;;;1982.55;812.92;;;;;;;23.34;67.43;97458.63;73257;258;192654;-39
2021/09/07 20:11:24;;;;;;;1948.62;805.42;;;;;;;23.30;67.48;97463.80;73155;258;274987;-40
2021/09/07 20:11:45;;;;;;;1904.65;796.08;;;;;;;23.27;67.50;97461.68;73450;258;199895;-38
2021/09/07 20:12:07;;;;;;;1925.58;792.98;;;;;;;23.26;67.58;97463.64;73028;258;190008;-40
2021/09/07 20:12:28;;;;;;;1938.65;793.13;;;;;;;23.28;67.61;97464.11;72786;258;277927;-38
2021/09/07 20:12:50;;;;;;;1929.05;790.60;;;;;;;23.29;67.56;97457.46;73366;259;190653;-40
2021/09/07 20:13:11;;;;;;;1857.95;769.25;;;;;;;23.28;67.47;97460.53;73061;258;185723;-41
2021/09/07 20:13:33;;;;;;;1841.13;763.05;;;;;;;23.28;67.53;97463.30;73271;258;275258;-39
2021/09/07 20:13:54;;;;;;;1880.58;778.67;;;;;;;23.28;67.56;97466.06;73660;258;190923;-40
2021/09/07 20:14:16;;;;;;;1813.05;758.98;;;;;;;23.27;67.51;97462.49;73304;258;190259;-40
2021/09/07 20:14:37;;;;;;;1840.48;759.75;;;;;;;23.27;67.56;97465.83;72749;260;277525;-39
2021/09/07 20:14:59;;;;;;;1813.00;751.08;;;;;;;23.26;67.55;97464.21;73068;258;191043;-39
2021/09/07 20:15:21;;;;;;;1850.00;759.75;;;;;;;23.28;67.61;97466.06;73219;258;188959;-39
2021/09/07 20:15:42;;;;;;;1867.10;769.10;;;;;;;23.25;67.68;97471.70;73182;258;276590;-38
2021/09/07 20:16:04;;;;;;;1949.15;801.90;;;;;;;23.21;67.70;97465.22;73619;258;190098;-40
2021/09/07 20:16:25;;;;;;;1999.90;839.57;;;;;;;23.21;67.73;97469.95;73205;258;189045;-39
2021/09/07 20:16:47;;;;;;;1999.90;940.62;;;;;;;23.20;67.74;97460.03;73038;259;277156;-40
2021/09/07 20:17:08;;;;;;;1999.90;899.87;;;;;;;23.21;67.73;97467.98;73514;258;192126;-39
2021/09/07 20:17:30;;;;;;;1999.90;885.37;;;;;;;23.19;67.74;97466.71;73369;258;189119;-39
2021/09/07 20:17:51;;;;;;;1999.90;893.33;;;;;;;23.19;67.74;97466.14;73072;258;277801;-38
2021/09/07 20:18:13;;;;;;;1999.90;869.28;;;;;;;23.20;67.73;97466.95;73523;258;191347;-39
2021/09/07 20:18:34;;;;;;;1999.90;826.25;;;;;;;23.22;67.75;97463.27;73347;258;190082;-38
2021/09/07 20:18:56;;;;;;;1980.73;797.73;;;;;;;23.19;67.80;97468.09;73297;258;276532;-40
2021/09/07 20:19:17;;;;;;;1976.33;785.23;;;;;;;23.17;67.80;97465.64;73544;258;190041;-39
2021/09/07 20:19:39;;;;;;;1999.35;793.52;;;;;;;23.18;67.80;97463.67;73482;258;190251;-39
2021/09/07 20:20:01;;;;;;;1924.92;779.27;;;;;;;23.17;67.87;97465.64;73273;258;276287;-39
2021/09/07 20:20:22;;;;;;;1908.47;778.70;;;;;;;23.17;67.84;97466.20;73609;258;190204;-39
2021/09/07 20:20:44;;;;;;;1892.45;770.05;;;;;;;23.16;67.84;97465.97;73484;258;190056;-41
2021/09/07 20:21:05;;;;;;;1869.18;756.47;;;;;;;23.19;67.88;97466.14;73331;258;277342;-39
2021/09/07 20:21:27;;;;;;;1899.90;772.67;;;;;;;23.22;67.78;97468.80;73553;258;190198;-39
2021/09/07 20:21:48;;;;;;;1974.55;789.42;;;;;;;23.19;67.73;97468.09;73476;258;189974;-39
2021/09/07 20:22:10;;;;;;;1999.90;836.65;;;;;;;23.19;67.73;97464.75;73294;258;277223;-41
2021/09/07 20:22:31;;;;;;;1999.90;850.25;;;;;;;23.23;67.64;97466.27;73615;258;190343;-39
2021/09/07 20:22:53;;;;;;;1999.90;860.15;;;;;;;23.23;67.63;97462.93;73468;258;199729;-38
2021/09/07 20:23:14;;;;;;;1999.90;854.40;;;;;;;23.22;67.68;97462.70;72826;258;277539;-38
2021/09/07 20:23:36;;;;;;;1999.90;848.32;;;;;;;23.22;67.66;97464.66;73249;260;188938;-39
2021/09/07 20:23:58;;;;;;;1999.90;839.30;;;;;;;23.21;67.66;97463.03;72955;260;188947;-39
2021/09/07 20:24:19;;;;;;;1999.90;837.08;;;;;;;23.18;67.74;97464.52;72854;258;277978;-40
2021/09/07 20:24:41;;;;;;;1999.90;831.67;;;;;;;23.18;67.75;97463.67;73318;258;190204;-39
2021/09/07 20:25:02;;;;;;;1999.90;848.75;;;;;;;23.18;67.77;97460.38;73068;258;189918;-39
2021/09/07 20:25:24;;;;;;;1999.90;825.80;;;;;;;23.19;67.79;97463.95;72911;258;278638;-38
2021/09/07 20:25:45;;;;;;;1999.90;801.82;;;;;;;23.18;67.87;97455.38;73379;258;190123;-39
2021/09/07 20:26:07;;;;;;;1999.90;795.57;;;;;;;23.18;67.85;97458.15;73364;258;189971;-40
2021/09/07 20:26:28;;;;;;;1999.90;818.07;;;;;;;23.17;67.80;97465.64;73143;258;277878;-40
2021/09/07 20:26:50;;;;;;;1999.90;811.17;;;;;;;23.17;67.87;97469.78;73493;258;190359;-38
2021/09/07 20:27:12;;;;;;;1999.90;806.98;;;;;;;23.18;67.84;97460.91;72994;258;190048;-39
2021/09/07 20:27:33;;;;;;;1999.90;828.75;;;;;;;23.17;67.85;97464.83;73260;258;279685;-38
2021/09/07 20:27:55;;;;;;;1999.90;857.87;;;;;;;23.12;67.96;97465.03;73535;258;189796;-38
2021/09/07 20:28:16;;;;;;;1999.90;885.13;;;;;;;23.13;67.92;97460.55;72748;258;189998;-39
2021/09/07 20:28:38;;;;;;;1999.90;864.00;;;;;;;23.12;68.03;97460.88;73247;258;277544;-40
2021/09/07 20:29:05;;;;;;;1999.90;865.43;;;;;;;23.13;68.06;97465.27;73570;258;190623;-37
2021/09/07 20:29:25;;;;;;;1999.90;871.00;;;;;;;23.16;67.96;97468.73;73089;258;161959;-39
2021/09/07 20:29:46;;;;;;;1999.90;866.25;;;;;;;23.16;67.92;97470.12;73293;258;277505;-40
2021/09/07 20:30:08;;;;;;;1999.90;867.90;;;;;;;23.15;67.89;97466.55;73316;258;189102;-38
2021/09/07 20:30:29;;;;;;;1999.90;878.65;;;;;;;23.12;67.87;97469.98;72718;259;190891;-38
2021/09/07 20:30:51;;;;;;;1999.90;878.42;;;;;;;23.13;67.94;97463.31;72817;260;276682;-40
2021/09/07 20:31:13;;;;;;;1999.90;867.40;;;;;;;23.13;67.97;97466.65;73026;259;189827;-38
2021/09/07 20:31:34;;;;;;;1999.90;859.52;;;;;;;23.14;67.98;97468.27;72873;259;191030;-38
2021/09/07 20:31:56;;;;;;;1999.90;855.83;;;;;;;23.13;67.98;97468.03;72789;260;285798;-38
2021/09/07 20:32:17;;;;;;;1999.90;850.85;;;;;;;23.11;67.99;97466.17;72939;258;191304;-39
2021/09/07 20:32:39;;;;;;;1999.90;864.55;;;;;;;23.06;68.05;97472.11;72870;258;200710;-39
2021/09/07 20:33:00;;;;;;;1999.90;860.82;;;;;;;23.04;68.09;97470.83;72908;258;276710;-38
2021/09/07 20:33:22;;;;;;;1999.90;885.00;;;;;;;23.01;68.13;97469.55;73151;258;189672;-40
2021/09/07 20:33:43;;;;;;;1999.90;884.25;;;;;;;23.02;68.17;97468.41;73235;258;192449;-38
2021/09/07 20:34:05;;;;;;;1999.90;873.65;;;;;;;23.05;68.20;97466.34;73197;258;274881;-38
2021/09/07 20:34:26;;;;;;;1999.90;861.80;;;;;;;23.04;68.18;97468.88;73493;258;190634;-39
2021/09/07 20:34:48;;;;;;;1999.90;869.45;;;;;;;23.05;68.14;97469.69;73424;258;190908;-39
2021/09/07 20:35:10;;;;;;;1999.90;894.30;;;;;;;23.05;68.12;97471.06;73247;258;276289;-39
2021/09/07 20:35:31;;;;;;;1999.90;898.32;;;;;;;23.03;68.22;97468.64;73480;258;192755;-41
2021/09/07 20:35:55;;;;;;;1999.90;876.73;;;;;;;23.05;68.22;97466.92;73241;258;190342;-39
2021/09/07 20:36:16;;;;;;;1999.90;897.33;;;;;;;23.07;68.20;97470.16;72848;258;245467;-39
2021/09/07 20:36:37;;;;;;;1999.90;886.40;;;;;;;23.04;68.22;97473.59;73578;258;189956;-39
2021/09/07 20:36:59;;;;;;;1999.90;897.70;;;;;;;23.07;68.12;97474.30;73283;258;190042;-40
2021/09/07 20:37:21;;;;;;;1999.90;882.80;;;;;;;23.11;68.57;97464.80;73089;258;278084;-39
2021/09/07 20:37:42;;;;;;;1999.90;873.47;;;;;;;23.28;68.40;97472.98;73660;258;190622;-38
2021/09/07 20:38:04;;;;;;;1999.90;843.77;;;;;;;23.45;68.33;97466.55;73456;258;189980;-42
2021/09/07 20:38:25;;;;;;;1999.90;798.95;;;;;;;23.60;67.94;97462.63;73192;258;275432;-41
2021/09/07 20:38:47;;;;;;;1999.90;798.33;;;;;;;23.68;67.70;97472.61;73675;258;190760;-40
2021/09/07 20:39:08;;;;;;;1999.90;801.33;;;;;;;23.57;67.41;97460.52;73437;258;190419;-40
2021/09/07 20:39:30;;;;;;;1999.90;849.87;;;;;;;23.48;67.30;97466.67;72928;258;276352;-39
2021/09/07 20:39:51;;;;;;;1999.90;981.08;;;;;;;23.43;67.41;97466.89;73281;259;190790;-40
2021/09/07 20:40:13;;;;;;;1999.90;902.48;;;;;;;23.58;67.30;97467.70;73084;258;188898;-39
2021/09/07 20:40:34;;;;;;;1999.90;825.98;;;;;;;23.67;67.15;97464.88;73201;258;287637;-42
2021/09/07 20:40:56;;;;;;;1999.90;775.40;;;;;;;23.88;66.93;97471.80;73574;258;192388;-39
2021/09/07 20:41:18;;;;;;;1999.90;769.30;;;;;;;24.06;66.42;97466.94;73038;258;199417;-37
2021/09/07 20:41:39;;;;;;;1999.90;787.02;;;;;;;24.15;65.90;97462.14;72659;260;279014;-42
2021/09/07 20:42:01;;;;;;;1999.90;803.50;;;;;;;24.22;65.59;97461.80;73506;258;190730;-40
2021/09/07 20:42:22;;;;;;;1999.90;794.80;;;;;;;24.34;65.45;97464.41;72777;258;188880;-40
2021/09/07 20:42:44;;;;;;;1999.90;781.47;;;;;;;24.39;65.38;97471.14;72969;259;277033;-39
2021/09/07 20:43:05;;;;;;;1999.90;823.20;;;;;;;24.76;64.87;97468.68;73409;258;190159;-37
2021/09/07 20:43:27;;;;;;;1999.90;999.90;;;;;;;25.05;64.56;97471.88;72781;260;190267;-39
2021/09/07 20:43:48;;;;;;;1999.90;999.90;;;;;;;25.33;63.83;97468.42;72191;262;277004;-38
2021/09/07 20:44:10;;;;;;;1999.90;999.90;;;;;;;25.51;63.25;97464.80;73638;258;190152;-37
2021/09/07 20:44:32;;;;;;;1999.90;999.90;;;;;;;25.66;62.74;97468.27;73283;258;190225;-39
2021/09/07 20:44:53;;;;;;;1999.90;999.90;;;;;;;25.84;62.36;97471.59;73223;258;274931;-38
2021/09/07 20:45:15;;;;;;;1999.90;987.95;;;;;;;25.94;61.95;97467.74;73541;258;190680;-37
2021/09/07 20:45:37;;;;;;;1999.90;961.22;;;;;;;26.06;61.64;97473.06;73372;258;200390;-40
2021/09/07 20:45:58;;;;;;;1999.90;924.20;;;;;;;26.14;61.43;97470.69;73291;258;275593;-38
2021/09/07 20:46:20;;;;;;;1999.90;887.80;;;;;;;26.29;61.17;97476.91;73420;258;190717;-39
2021/09/07 20:46:41;;;;;;;1999.90;841.85;;;;;;;26.39;60.92;97470.06;73278;258;190361;-37
2021/09/07 20:47:03;;;;;;;1965.68;801.92;;;;;;;26.52;60.60;97471.61;72928;258;273681;-39
2021/09/07 20:47:24;;;;;;;1788.48;750.50;;;;;;;26.65;60.33;97472.34;73530;258;190717;-39
2021/09/07 20:47:46;;;;;;;1657.93;705.52;;;;;;;26.83;59.99;97475.02;73409;258;190189;-39
2021/09/07 20:48:09;;;;;;;1536.45;664.32;;;;;;;26.98;59.62;97474.21;73307;258;276066;-37
2021/09/07 20:48:30;;;;;;;1425.22;614.30;;;;;;;27.03;59.39;97467.62;73650;258;169512;-38
2021/09/07 20:48:52;;;;;;;1259.65;542.17;;;;;;;27.00;59.37;97471.06;73389;258;189758;-38
2021/09/07 20:49:14;;;;;;;1126.83;465.30;;;;;;;26.99;59.34;97477.22;73118;258;278109;-38
2021/09/07 20:49:35;;;;;;;1011.87;420.52;;;;;;;26.94;59.38;97476.11;73261;258;190523;-39
2021/09/07 20:49:57;;;;;;;924.87;379.80;;;;;;;26.90;59.48;97475.19;73016;260;190884;-38
2021/09/07 20:50:18;;;;;;;821.90;326.27;;;;;;;26.89;59.45;97473.58;72656;258;278570;-40
2021/09/07 20:50:40;;;;;;;737.83;284.45;;;;;;;26.92;59.44;97477.05;73633;258;189984;-38
2021/09/07 20:51:01;;;;;;;637.10;228.50;;;;;;;26.95;59.37;97479.11;73482;258;188418;-39
2021/09/07 20:51:23;;;;;;;571.03;193.78;;;;;;;26.99;59.30;97468.87;73214;258;277715;-39
2021/09/07 20:51:45;;;;;;;519.00;164.47;;;;;;;27.07;59.14;97458.77;73725;258;190657;-38
2021/09/07 20:52:06;;;;;;;451.27;139.97;;;;;;;27.19;58.92;97466.20;73330;258;189404;-37
2021/09/07 20:52:28;;;;;;;376.20;115.50;;;;;;;27.29;58.72;97469.25;72947;258;277009;-38
2021/09/07 20:52:49;;;;;;;320.95;96.20;;;;;;;27.37;58.55;97465.47;73568;258;190822;-36
2021/09/07 20:53:13;;;;;;;285.77;84.87;;;;;;;27.43;58.45;97471.56;73328;258;189065;-38
2021/09/07 20:53:34;;;;;;;462.02;151.25;;;;;;;27.39;59.36;97469.28;73379;258;247711;-38
2021/09/07 20:53:55;;;;;;;941.70;348.50;;;;;;;27.28;59.03;97468.22;73703;258;189956;-40
2021/09/07 20:54:17;;;;;;;921.55;337.25;;;;;;;27.33;58.78;97464.59;73109;258;192502;-39
2021/09/07 20:54:38;;;;;;;793.02;283.15;;;;;;;27.49;58.58;97465.14;72705;260;275864;-38
2021/09/07 20:55:00;;;;;;;660.25;218.85;;;;;;;27.59;58.32;97462.61;73050;260;190297;-38
2021/09/07 20:55:22;;;;;;;557.45;164.57;;;;;;;27.75;58.04;97465.36;72391;261;189321;-39
2021/09/07 20:55:43;;;;;;;470.80;132.60;;;;;;;27.93;57.66;97458.80;72318;262;277879;-38
2021/09/07 20:56:05;;;;;;;368.75;105.50;;;;;;;28.07;57.35;97462.46;72884;261;190042;-37
2021/09/07 20:56:26;;;;;;;319.80;90.65;;;;;;;28.14;57.23;97466.21;72719;260;189502;-38
2021/09/07 20:56:48;;;;;;;273.52;76.07;;;;;;;28.12;57.14;97469.96;72754;260;277607;-37
2021/09/07 20:57:09;;;;;;;215.97;61.53;;;;;;;28.07;57.25;97466.64;72639;260;190317;-37
2021/09/07 20:57:31;;;;;;;182.25;52.13;;;;;;;28.14;57.14;97466.80;72323;262;187590;-38
2021/09/07 20:57:52;;;;;;;162.25;45.20;;;;;;;28.20;56.93;97463.37;72066;262;277883;-38
2021/09/07 20:58:14;;;;;;;136.55;38.05;;;;;;;28.32;56.83;97468.02;72150;262;190609;-39
2021/09/07 20:58:36;;;;;;;114.75;34.75;;;;;;;28.42;56.59;97460.45;72092;263;189518;-39
2021/09/07 20:58:57;;;;;;;109.40;32.15;;;;;;;28.52;56.44;97469.61;72947;259;278675;-37
2021/09/07 20:59:20;;;;;;;99.03;28.92;;;;;;;28.59;56.31;97463.93;72982;259;193081;-39
2021/09/07 20:59:41;;;;;;;87.97;26.02;;;;;;;28.58;56.17;97461.73;72891;259;187045;-38
2021/09/07 21:00:03;;;;;;;85.60;24.87;;;;;;;28.55;56.26;97472.23;72790;259;275184;-38
2021/09/07 21:00:24;;;;;;;81.87;23.83;;;;;;;28.62;56.19;97465.41;72984;259;190929;-38
2021/09/07 21:00:46;;;;;;;74.75;22.42;;;;;;;28.76;55.95;97464.27;72621;259;188508;-38
2021/09/07 21:01:08;;;;;;;69.05;21.80;;;;;;;28.98;55.64;97469.67;72708;258;279087;-38
2021/09/07 21:01:29;;;;;;;60.88;19.77;;;;;;;29.17;55.29;97463.22;73155;258;188850;-39
2021/09/07 21:01:51;;;;;;;51.77;17.07;;;;;;;29.28;55.03;97466.98;73145;259;188140;-39
2021/09/07 21:02:13;;;;;;;54.63;18.50;;;;;;;29.13;55.11;97469.31;72911;258;275305;-38
2021/09/07 21:02:34;;;;;;;44.63;15.48;;;;;;;28.98;55.38;97466.08;73728;258;194406;-38
2021/09/07 21:02:56;;;;;;;47.45;15.48;;;;;;;29.01;55.42;97459.15;73368;258;189146;-38
2021/09/07 21:03:19;;;;;;;49.15;15.50;;;;;;;29.12;55.25;97466.31;73243;258;277425;-39
2021/09/07 21:03:41;;;;;;;47.05;16.55;;;;;;;29.25;55.07;97464.95;73291;259;190488;-38
2021/09/07 21:04:02;;;;;;;47.80;16.93;;;;;;;29.42;54.82;97463.61;72166;250;189356;-37
2021/09/07 21:04:24;;;;;;;42.23;15.05;;;;;;;29.50;54.63;97467.36;72298;251;274639;-38